TUI Nederland B38M at Groningen on Jul 5th 2021, rejected takeoff due to windshear alert

Last Update: July 7, 2021 / 21:03:34 GMT/Zulu time

Bookmark this article
Incident Facts

Date of incident
Jul 5, 2021

Classification
Incident

Flight number
OR-607

Aircraft Registration
PH-TFN

Aircraft Type
Boeing 737-800MAX

ICAO Type Designator
B38M

Airport ICAO Code
EHGG

A TUI Nederland Airlines Boeing 737-8 MAX, registration PH-TFN performing flight OR-607 from Groningen (Netherlands) to Las Palmas,CI (Spain), had lined up runway 23 and was cleared for takeoff, when the crew waited and advised ATC they needed two more minutes due to weather ahead. The crew finally commenced takeoff from runway 23 but rejected takeoff at low speed (about 78 knots over ground) after receiving a wind shear alert. The crew advised they wanted to return to the holding point. While taxiing back to the holding point the crew called maintenance, the weather radar was reset.

The aircraft subsequently departed and reached Las Palmas with a delay of 50 minutes.

Metars:
EHGG 051555Z AUTO 22007KT 9999 FEW015CB SCT027 BKN041 18/14 Q1007 REDZ TEMPO 6000 SHRA FEW020CB=
EHGG 051525Z AUTO 20007KT 170V230 9999 NSC 19/14 Q1007 TEMPO 6000 SHRA FEW020CB=
EHGG 051455Z AUTO 21007KT 160V240 9999 NSC 20/14 Q1007 TEMPO 6000 SHRA FEW020CB=
EHGG 051425Z AUTO 21009KT 9999 NSC 19/14 Q1008 TEMPO 6000 SHRA FEW020CB=
EHGG 051355Z AUTO 21012KT 180V240 9999 NSC 19/14 Q1007 TEMPO 6000 SHRA FEW020CB=
EHGG 051325Z AUTO 21009KT 180V240 9999 -RA FEW027 SCT032 BKN037 19/14 Q1007 TEMPO 7000 -SHRA FEW020CB=
EHGG 051255Z AUTO 21009KT 170V250 9999 FEW030 21/14 Q1007 TEMPO 7000 -SHRA FEW020CB=
EHGG 051225Z AUTO 19009KT 160V220 9999 FEW023 SCT030 20/14 Q1007 TEMPO 7000 -SHRA FEW020CB=
Incident Facts

Date of incident
Jul 5, 2021

Classification
Incident

Flight number
OR-607

Aircraft Registration
PH-TFN

Aircraft Type
Boeing 737-800MAX

ICAO Type Designator
B38M

Airport ICAO Code
EHGG

This article is published under license from Avherald.com. © of text by Avherald.com.
Article source

You can read 4 more free articles without a subscription.

Subscribe now and continue reading without any limits!

Are you a subscriber?
Login
Subscribe

Read unlimited articles and receive our daily update briefing. Gain better insights into what is happening in commercial aviation safety.

Free newsletter

Want to know more and stay ahead? Get our free weekly newsletter and join 4845 existing subscribers.

By subscribing, you accept our terms and conditions and confirm that you've read our privacy policy.

Send tip

Support AeroInside by sending a small tip amount.

Related articles

Newest articles

Subscribe today

Are you researching aviation incidents? Get access to AeroInside Insights, unlimited read access and receive the daily newsletter.

Pick your plan and subscribe

Partner

Blockaviation logo

A new way to document and demonstrate airworthiness compliance and aircraft value. Find out more.

Virtual Speech logo

Train yourself online in VR with the special course for aviation: "Crisis Communications: Airlines". Find out more.

Get updates

Never miss an article from AeroInside. Subscribe to our free weekly newsletter and join 4845 existing subscribers.

By subscribing, you accept our terms and conditions and that you've read our privacy policy.

AeroInside Blog
Popular aircraft
Airbus A320
Boeing 737-800
Boeing 737-800 MAX
Popular airlines
American Airlines
United
Delta
Air Canada
Lufthansa
British Airways